Time;durP1;ratioP1;P1;durP2;ratioP2;P2;SDS_P1;SDS_P2;PMS_P1;PMS_P2;Temp;Humidity;BMP_temperature;BMP_pressure;BME280_temperature;BME280_humidity;BME280_pressure;Samples;Min_cycle;Max_cycle;Signal;HPM_P1;HPM_P2
2023/04/12 00:00:09;;;;;;;10.95;7.30;;;;;;;11.67;100.00;100596.72;2064950;28;20605;-71
2023/04/12 00:01:31;;;;;;;16.70;8.07;;;;;;;11.66;100.00;100594.94;2075984;28;20045;-71
2023/04/12 00:02:54;;;;;;;13.13;7.55;;;;;;;11.68;100.00;100592.31;2069277;28;20038;-71
2023/04/12 00:04:15;;;;;;;13.60;8.10;;;;;;;11.67;100.00;100595.81;2076032;28;20045;-72
2023/04/12 00:05:38;;;;;;;12.63;8.35;;;;;;;11.62;100.00;100595.75;2070664;28;20080;-71
2023/04/12 00:07:01;;;;;;;12.40;8.35;;;;;;;11.58;100.00;100592.22;2067925;28;20079;-71
2023/04/12 00:08:25;;;;;;;11.60;8.13;;;;;;;11.58;100.00;100593.97;2076390;28;20057;-71
2023/04/12 00:09:48;;;;;;;13.15;8.57;;;;;;;11.58;100.00;100594.88;2069468;28;20188;-71
2023/04/12 00:11:11;;;;;;;13.57;8.60;;;;;;;11.61;100.00;100591.38;2075672;28;20103;-71
2023/04/12 00:12:33;;;;;;;10.68;8.05;;;;;;;11.64;100.00;100593.13;2066454;28;20054;-71
2023/04/12 00:13:55;;;;;;;15.20;8.45;;;;;;;11.65;100.00;100597.56;2078955;28;20063;-71
2023/04/12 00:15:17;;;;;;;13.23;7.53;;;;;;;11.62;100.00;100587.84;2086685;28;20045;-72
2023/04/12 00:16:38;;;;;;;13.40;7.85;;;;;;;11.62;100.00;100593.13;2078677;28;20111;-71
2023/04/12 00:18:01;;;;;;;13.00;8.20;;;;;;;11.59;100.00;100594.00;2075680;28;20042;-71
2023/04/12 00:19:24;;;;;;;12.25;7.88;;;;;;;11.56;100.00;100588.66;2075734;28;20045;-71
2023/04/12 00:20:47;;;;;;;11.98;8.20;;;;;;;11.56;100.00;100590.41;2077759;28;20046;-71
2023/04/12 00:22:08;;;;;;;12.93;7.88;;;;;;;11.55;100.00;100586.88;2068975;28;20429;-71
2023/04/12 00:23:32;;;;;;;13.98;9.18;;;;;;;11.55;100.00;100581.59;2078350;28;20049;-72
2023/04/12 00:24:56;;;;;;;10.50;8.20;;;;;;;11.56;100.00;100585.13;2069117;28;20049;-71
2023/04/12 00:26:17;;;;;;;12.57;8.40;;;;;;;11.56;100.00;100571.91;2068207;28;20038;-71
2023/04/12 00:27:41;;;;;;;12.68;7.97;;;;;;;11.56;100.00;100569.28;2074799;28;20505;-70
2023/04/12 00:29:03;;;;;;;14.07;7.95;;;;;;;11.57;100.00;100573.69;2079229;28;20041;-71
2023/04/12 00:30:24;;;;;;;12.95;7.57;;;;;;;11.59;100.00;100569.31;2072942;28;20387;-71
2023/04/12 00:31:46;;;;;;;12.43;8.07;;;;;;;11.62;100.00;100565.81;2073033;28;20045;-71
2023/04/12 00:33:08;;;;;;;13.02;7.35;;;;;;;11.62;100.00;100566.69;2069632;28;20073;-71
2023/04/12 00:34:30;;;;;;;11.02;7.45;;;;;;;11.64;100.00;100574.63;2078395;28;20524;-71
2023/04/12 00:35:53;;;;;;;11.35;7.10;;;;;;;11.63;100.00;100570.22;2072822;28;20061;-71
2023/04/12 00:37:15;;;;;;;12.00;7.68;;;;;;;11.65;100.00;100574.66;2070281;28;20046;-71
2023/04/12 00:38:37;;;;;;;11.43;7.95;;;;;;;11.66;100.00;100573.78;2062079;28;20054;-71
2023/04/12 00:40:01;;;;;;;12.23;7.72;;;;;;;11.67;100.00;100567.63;2071919;28;20052;-71
2023/04/12 00:41:24;;;;;;;11.73;7.05;;;;;;;11.67;100.00;100574.66;2078801;28;20135;-71
2023/04/12 00:42:47;;;;;;;13.43;7.35;;;;;;;11.62;100.00;100569.31;2069778;28;20038;-71
2023/04/12 00:44:09;;;;;;;13.63;7.57;;;;;;;11.64;100.00;100567.59;2066595;28;20434;-70
2023/04/12 00:45:32;;;;;;;10.50;7.22;;;;;;;11.69;100.00;100576.44;2075673;28;20052;-71
2023/04/12 00:46:55;;;;;;;14.13;7.53;;;;;;;11.74;100.00;100579.16;2072160;28;20050;-71
2023/04/12 00:48:17;;;;;;;11.98;8.05;;;;;;;11.81;100.00;100575.69;2072725;28;20052;-71
2023/04/12 00:49:40;;;;;;;11.80;8.77;;;;;;;11.85;100.00;100578.38;2069673;28;20073;-71
2023/04/12 00:51:03;;;;;;;12.48;8.10;;;;;;;11.89;100.00;100579.25;2075049;28;20176;-71
2023/04/12 00:52:26;;;;;;;13.55;9.60;;;;;;;11.86;100.00;100579.25;2072313;28;20046;-71
2023/04/12 00:53:49;;;;;;;11.95;9.10;;;;;;;11.84;100.00;100568.66;2076999;28;20060;-71
2023/04/12 00:55:12;;;;;;;12.65;8.63;;;;;;;11.83;100.00;100561.59;2072536;28;20577;-71
2023/04/12 00:56:35;;;;;;;11.40;6.57;;;;;;;11.84;100.00;100563.38;2070108;28;20057;-71
2023/04/12 00:57:58;;;;;;;8.70;5.25;;;;;;;11.83;100.00;100560.72;2075603;28;20064;-71
2023/04/12 00:59:21;;;;;;;10.82;7.38;;;;;;;11.81;100.00;100566.00;2077459;28;20098;-71
2023/04/12 01:00:48;;;;;;;10.82;6.20;;;;;;;11.82;100.00;100572.16;2068568;28;20050;-71
2023/04/12 01:02:10;;;;;;;7.82;5.03;;;;;;;11.85;100.00;100578.38;2062752;28;20058;-71
2023/04/12 01:03:33;;;;;;;8.68;4.18;;;;;;;11.82;100.00;100574.81;2067151;28;20147;-71
2023/04/12 01:04:57;;;;;;;5.50;3.72;;;;;;;11.82;100.00;100567.75;2062139;28;20054;-71
2023/04/12 01:06:36;;;;;;;6.95;4.18;;;;;;;11.83;100.00;100561.59;2071877;28;20068;-71
2023/04/12 01:08:05;;;;;;;7.38;4.47;;;;;;;11.84;100.00;100558.09;2066668;28;20069;-71
2023/04/12 01:09:42;;;;;;;8.60;5.10;;;;;;;11.86;100.00;100559.00;2077156;28;20100;-71
2023/04/12 01:11:12;;;;;;;10.70;7.93;;;;;;;11.83;100.00;100558.06;2071850;28;20065;-71
2023/04/12 01:12:41;;;;;;;8.80;5.38;;;;;;;11.81;100.00;100550.16;2076792;28;20069;-71
2023/04/12 01:14:11;;;;;;;7.40;4.70;;;;;;;11.83;100.00;100543.09;2065907;28;20137;-71
2023/04/12 01:15:41;;;;;;;7.22;3.80;;;;;;;11.83;100.00;100540.44;2068519;28;20092;-71
2023/04/12 01:17:06;;;;;;;7.43;4.68;;;;;;;11.80;100.00;100544.84;2071889;28;20696;-71
2023/04/12 01:18:30;;;;;;;6.63;4.70;;;;;;;11.76;100.00;100540.38;2073526;28;20544;-72
2023/04/12 01:19:57;;;;;;;7.65;4.75;;;;;;;11.66;100.00;100544.69;2075424;28;20099;-71
2023/04/12 01:21:28;;;;;;;8.88;5.97;;;;;;;11.54;100.00;100555.19;2069622;28;20034;-72
2023/04/12 01:23:41;;;;;;;9.68;7.85;;;;;;;11.43;100.00;100549.78;2077805;28;20448;-71
2023/04/12 01:25:22;;;;;;;8.73;6.55;;;;;;;11.34;100.00;100549.72;2060424;28;20057;-71
2023/04/12 01:26:50;;;;;;;8.15;6.20;;;;;;;11.25;100.00;100547.00;2072029;28;20049;-71
2023/04/12 01:28:19;;;;;;;9.70;5.97;;;;;;;11.19;100.00;100560.13;2060638;28;20085;-71
2023/04/12 01:29:45;;;;;;;11.68;7.55;;;;;;;11.12;100.00;100556.56;2068765;28;20136;-71
2023/04/12 01:31:08;;;;;;;9.55;6.93;;;;;;;11.09;100.00;100551.22;2078521;28;20492;-71
2023/04/12 01:32:33;;;;;;;8.52;5.70;;;;;;;11.09;100.00;100556.50;2066352;28;20042;-71
2023/04/12 01:34:01;;;;;;;9.43;6.60;;;;;;;11.06;100.00;100563.53;2068766;28;20046;-71
2023/04/12 01:35:28;;;;;;;8.65;6.20;;;;;;;11.02;100.00;100554.69;2066406;28;20426;-71
2023/04/12 01:36:51;;;;;;;8.32;6.07;;;;;;;10.96;100.00;100559.88;2070158;28;20449;-71
2023/04/12 01:38:14;;;;;;;8.77;5.78;;;;;;;10.93;100.00;100554.59;2078064;28;20081;-71
2023/04/12 01:39:36;;;;;;;9.77;6.03;;;;;;;10.94;100.00;100555.47;2078332;28;20045;-71
2023/04/12 01:40:59;;;;;;;11.27;7.30;;;;;;;10.92;100.00;100562.50;2080444;28;20057;-71
2023/04/12 01:42:21;;;;;;;8.80;6.13;;;;;;;10.89;100.00;100551.91;2067209;28;20050;-71
2023/04/12 01:43:46;;;;;;;8.15;5.38;;;;;;;10.86;100.00;100546.59;2078073;28;20049;-71
2023/04/12 01:45:08;;;;;;;10.82;6.03;;;;;;;10.82;100.00;100548.31;2078159;28;20054;-71
2023/04/12 01:46:31;;;;;;;;;;;;;;;10.76;100.00;100540.34;2072461;28;20084;-72
2023/04/12 01:47:52;;;;;;;6.80;5.07;;;;;;;10.71;100.00;100547.28;2074917;28;19921;-71
2023/04/12 01:49:17;;;;;;;8.10;5.70;;;;;;;10.69;100.00;100557.84;2069247;28;20173;-72
2023/04/12 01:50:47;;;;;;;9.15;5.57;;;;;;;10.62;100.00;100549.84;2074953;28;20061;-71
2023/04/12 01:52:15;;;;;;;8.45;5.57;;;;;;;10.59;100.00;100544.50;2077362;28;20045;-72
2023/04/12 01:53:46;;;;;;;10.30;5.30;;;;;;;10.59;100.00;100547.16;2080292;28;20197;-71
2023/04/12 01:55:12;;;;;;;9.73;5.45;;;;;;;10.59;100.00;100549.78;2077161;28;20441;-71
2023/04/12 01:56:35;;;;;;;8.77;5.68;;;;;;;10.60;100.00;100551.56;2069859;28;20053;-71
2023/04/12 01:58:03;;;;;;;8.13;5.47;;;;;;;10.59;100.00;100548.03;2070877;28;20041;-71
2023/04/12 01:59:32;;;;;;;7.97;5.60;;;;;;;10.61;100.00;100550.72;2067049;28;20084;-71
2023/04/12 02:00:57;;;;;;;9.20;5.15;;;;;;;10.62;100.00;100548.09;2062439;28;20093;-71
2023/04/12 02:02:20;;;;;;;9.63;6.05;;;;;;;10.63;100.00;100551.63;2066657;28;20508;-71
2023/04/12 02:03:43;;;;;;;8.40;5.70;;;;;;;10.64;100.00;100550.72;2061726;28;20050;-71
2023/04/12 02:05:08;;;;;;;7.63;5.45;;;;;;;10.63;100.00;100544.56;2074194;28;20591;-71
2023/04/12 02:06:33;;;;;;;7.15;5.40;;;;;;;10.61;100.00;100541.03;2068793;28;20049;-71
2023/04/12 02:07:57;;;;;;;7.28;5.40;;;;;;;10.61;100.00;100541.03;2066583;28;20164;-70
2023/04/12 02:09:18;;;;;;;9.90;5.72;;;;;;;10.59;100.00;100541.88;2065016;28;20615;-70
2023/04/12 02:10:41;;;;;;;8.50;5.50;;;;;;;10.58;100.00;100535.72;2065832;28;20465;-71
2023/04/12 02:12:02;;;;;;;9.32;5.90;;;;;;;10.55;100.00;100535.69;2065316;28;20375;-71
2023/04/12 02:13:25;;;;;;;9.55;6.32;;;;;;;10.52;100.00;100540.03;2068301;28;20486;-71
2023/04/12 02:14:50;;;;;;;7.80;5.50;;;;;;;10.48;100.00;100539.13;2075315;28;20137;-72
2023/04/12 02:16:13;;;;;;;10.25;6.43;;;;;;;10.47;100.00;100539.09;2069822;28;20077;-72
2023/04/12 02:17:36;;;;;;;9.65;6.13;;;;;;;10.46;100.00;100534.69;2070705;28;20042;-71
2023/04/12 02:18:58;;;;;;;11.70;6.32;;;;;;;10.44;100.00;100526.75;2067952;28;20521;-72
2023/04/12 02:20:20;;;;;;;9.52;6.90;;;;;;;10.44;100.00;100520.56;2061186;28;20042;-71
2023/04/12 02:21:43;;;;;;;9.70;6.60;;;;;;;10.43;100.00;100532.91;2072875;28;20053;-71
2023/04/12 02:23:05;;;;;;;9.07;5.82;;;;;;;10.43;100.00;100529.38;2064765;28;20046;-71
2023/04/12 02:24:29;;;;;;;9.45;5.95;;;;;;;10.45;100.00;100527.63;2060499;28;20062;-71
2023/04/12 02:25:52;;;;;;;11.00;8.38;;;;;;;10.47;100.00;100533.81;2075482;28;20068;-71
2023/04/12 02:27:13;;;;;;;14.15;10.07;;;;;;;10.45;100.00;100531.16;2065540;28;20046;-71
2023/04/12 02:28:36;;;;;;;13.43;12.10;;;;;;;10.45;100.00;100527.63;2074173;28;20062;-71
2023/04/12 02:29:59;;;;;;;13.05;10.10;;;;;;;10.46;100.00;100525.00;2077414;28;20132;-71
2023/04/12 02:31:22;;;;;;;10.77;8.13;;;;;;;10.48;100.00;100530.31;2071832;28;20049;-71
2023/04/12 02:32:44;;;;;;;11.85;9.00;;;;;;;10.49;100.00;100532.97;2065505;28;20057;-71
2023/04/12 02:34:14;;;;;;;11.32;8.00;;;;;;;10.49;100.00;100534.72;2068190;28;20379;-73
2023/04/12 02:35:42;;;;;;;10.02;8.23;;;;;;;10.49;100.00;100537.38;2070342;28;20554;-71
2023/04/12 02:37:08;;;;;;;11.90;7.80;;;;;;;10.49;100.00;100534.72;2066353;28;20034;-71
2023/04/12 02:38:30;;;;;;;10.80;6.70;;;;;;;10.50;100.00;100541.78;2065730;28;20066;-71
2023/04/12 02:39:57;;;;;;;10.95;6.50;;;;;;;10.49;100.00;100537.38;2067829;28;20064;-71
2023/04/12 02:41:21;;;;;;;9.57;6.20;;;;;;;10.49;100.00;100534.72;2066673;28;20046;-71
2023/04/12 02:42:43;;;;;;;11.55;6.93;;;;;;;10.49;100.00;100540.00;2065796;28;20041;-71
2023/04/12 02:44:08;;;;;;;10.50;6.13;;;;;;;10.45;100.00;100532.91;2065539;28;20050;-71
2023/04/12 02:45:31;;;;;;;9.65;6.75;;;;;;;10.42;100.00;100532.88;2066491;28;20073;-71
2023/04/12 02:46:54;;;;;;;10.30;6.53;;;;;;;10.42;100.00;100530.25;2069640;28;20515;-71
2023/04/12 02:48:16;;;;;;;8.93;5.55;;;;;;;10.41;100.00;100533.75;2066883;28;20068;-71
2023/04/12 02:49:38;;;;;;;10.13;6.20;;;;;;;10.41;100.00;100536.38;2069034;28;20064;-71
2023/04/12 02:51:01;;;;;;;8.48;6.82;;;;;;;10.40;100.00;100535.50;2060411;28;20181;-71
2023/04/12 02:52:24;;;;;;;8.57;5.72;;;;;;;10.40;100.00;100543.41;2063659;28;20743;-71
2023/04/12 02:54:00;;;;;;;9.38;5.88;;;;;;;10.41;100.00;100541.66;2069783;28;20038;-71
2023/04/12 02:55:29;;;;;;;9.20;5.95;;;;;;;10.42;100.00;100535.53;2066767;28;20133;-71
2023/04/12 02:56:52;;;;;;;10.88;6.20;;;;;;;10.42;100.00;100530.25;2061589;28;20078;-71
2023/04/12 02:58:35;;;;;;;8.82;6.25;;;;;;;10.38;100.00;100527.56;2074363;28;20042;-71
2023/04/12 02:59:56;;;;;;;10.20;6.22;;;;;;;10.36;100.00;100533.69;2077581;28;20437;-71
2023/04/12 03:01:33;;;;;;;9.88;6.00;;;;;;;10.34;100.00;100536.31;2075402;28;20551;-71
2023/04/12 03:03:16;;;;;;;10.02;6.03;;;;;;;10.31;100.00;100541.53;2071812;28;20077;-71
2023/04/12 03:04:39;;;;;;;11.27;7.03;;;;;;;10.30;100.00;100530.97;2067642;28;20053;-71
2023/04/12 03:06:08;;;;;;;8.20;6.20;;;;;;;10.29;100.00;100526.56;2067291;28;20558;-71
2023/04/12 03:07:31;;;;;;;8.73;6.00;;;;;;;10.27;100.00;100528.28;2067027;28;20457;-71
2023/04/12 03:08:54;;;;;;;9.27;5.72;;;;;;;10.23;100.00;100532.66;2062922;28;20042;-71
2023/04/12 03:10:16;;;;;;;9.38;6.00;;;;;;;10.22;100.00;100537.91;2070898;28;20596;-71
2023/04/12 03:11:48;;;;;;;9.43;6.05;;;;;;;10.20;100.00;100540.50;2070822;28;20042;-71
2023/04/12 03:13:10;;;;;;;10.15;5.60;;;;;;;10.19;100.00;100535.22;2081581;28;20068;-71
2023/04/12 03:14:35;;;;;;;9.48;6.15;;;;;;;10.20;100.00;100539.63;2070432;28;20046;-71
2023/04/12 03:16:00;;;;;;;8.13;5.20;;;;;;;10.22;100.00;100540.53;2068571;28;20133;-71
2023/04/12 03:17:29;;;;;;;8.80;5.70;;;;;;;10.21;100.00;100544.94;2070964;28;20053;-71
2023/04/12 03:18:52;;;;;;;8.82;5.55;;;;;;;10.22;100.00;100543.19;2059343;28;20384;-71
2023/04/12 03:20:19;;;;;;;9.27;5.45;;;;;;;10.23;100.00;100548.47;2062390;28;20646;-71
2023/04/12 03:21:51;;;;;;;9.20;5.60;;;;;;;10.25;100.00;100549.38;2077753;28;20053;-71
2023/04/12 03:23:15;;;;;;;10.13;5.75;;;;;;;10.27;100.00;100552.91;2068836;28;20406;-71
2023/04/12 03:24:44;;;;;;;7.65;5.07;;;;;;;10.28;100.00;100552.06;2069980;28;20088;-71
2023/04/12 03:26:11;;;;;;;7.82;5.15;;;;;;;10.31;100.00;100560.00;2077737;28;20053;-71
2023/04/12 03:27:35;;;;;;;8.82;5.50;;;;;;;10.32;100.00;100559.13;2078789;28;20057;-71
2023/04/12 03:29:00;;;;;;;9.30;5.72;;;;;;;10.36;100.00;100554.81;2072700;28;20049;-70
2023/04/12 03:30:24;;;;;;;10.13;5.80;;;;;;;10.35;100.00;100553.91;2071785;28;20092;-71
2023/04/12 03:31:49;;;;;;;11.82;6.07;;;;;;;10.35;100.00;100564.47;2067913;28;20136;-71
2023/04/12 03:33:13;;;;;;;8.70;6.03;;;;;;;10.36;100.00;100560.09;2066239;28;20048;-71
2023/04/12 03:34:36;;;;;;;9.65;5.85;;;;;;;10.34;100.00;100561.81;2066913;28;20081;-71
2023/04/12 03:36:07;;;;;;;7.43;5.40;;;;;;;10.31;100.00;100556.47;2069111;28;20042;-71
2023/04/12 03:37:30;;;;;;;7.55;5.78;;;;;;;10.29;100.00;100545.91;2067646;28;20077;-71
2023/04/12 03:38:52;;;;;;;10.93;5.93;;;;;;;10.27;100.00;100558.19;2068464;28;20140;-71
2023/04/12 03:40:14;;;;;;;9.40;5.95;;;;;;;10.24;100.00;100555.50;2063393;28;20046;-71
2023/04/12 03:41:43;;;;;;;9.10;5.95;;;;;;;10.19;100.00;100557.19;2061464;28;20055;-71
2023/04/12 03:43:05;;;;;;;9.98;5.95;;;;;;;10.17;100.00;100560.69;2062907;28;20051;-71
2023/04/12 03:44:27;;;;;;;13.45;6.35;;;;;;;10.15;100.00;100559.75;2059575;28;20050;-71
2023/04/12 03:45:51;;;;;;;9.57;5.55;;;;;;;10.15;100.00;100567.66;2062180;28;20042;-71
2023/04/12 03:47:14;;;;;;;9.25;6.05;;;;;;;10.14;100.00;100560.59;2069468;28;20552;-71
2023/04/12 03:48:37;;;;;;;10.68;6.07;;;;;;;10.13;100.00;100570.28;2070600;28;20046;-71
2023/04/12 03:50:05;;;;;;;11.88;5.93;;;;;;;10.15;100.00;100573.81;2073469;28;20061;-71
2023/04/12 03:51:29;;;;;;;11.55;6.00;;;;;;;10.15;100.00;100560.63;2064072;28;20050;-71
2023/04/12 03:52:56;;;;;;;8.75;5.70;;;;;;;10.16;100.00;100562.41;2071212;28;20057;-71
2023/04/12 03:54:23;;;;;;;10.93;6.13;;;;;;;10.16;100.00;100566.81;2063157;28;20050;-71
2023/04/12 03:55:52;;;;;;;8.82;6.07;;;;;;;10.13;100.00;100570.28;2067930;28;20060;-71
2023/04/12 03:57:15;;;;;;;10.02;6.05;;;;;;;10.12;100.00;100559.69;2069817;28;20406;-71
2023/04/12 03:58:43;;;;;;;10.32;5.70;;;;;;;10.12;100.00;100575.53;2067645;28;20068;-71
2023/04/12 04:00:08;;;;;;;10.27;5.57;;;;;;;10.14;100.00;100573.78;2064073;28;20082;-71
2023/04/12 04:01:49;;;;;;;12.13;6.63;;;;;;;10.17;100.00;100576.53;2072881;28;20076;-71
2023/04/12 04:03:11;;;;;;;11.85;6.30;;;;;;;10.23;100.00;100576.59;2070499;28;20103;-71
2023/04/12 04:04:48;;;;;;;12.05;6.60;;;;;;;10.28;100.00;100577.56;2071155;28;20057;-72
2023/04/12 04:06:19;;;;;;;11.02;6.20;;;;;;;10.34;100.00;100575.88;2073250;28;20136;-71
2023/04/12 04:07:42;;;;;;;9.93;7.47;;;;;;;10.38;100.00;100574.16;2068732;28;20550;-71
2023/04/12 04:09:04;;;;;;;11.07;6.78;;;;;;;10.42;100.00;100583.00;2059753;28;20542;-71
2023/04/12 04:10:30;;;;;;;10.23;6.10;;;;;;;10.46;100.00;100583.06;2065918;28;20328;-71
2023/04/12 04:11:52;;;;;;;9.98;6.18;;;;;;;10.53;100.00;100578.75;2070773;28;20046;-71
2023/04/12 04:13:16;;;;;;;8.65;6.25;;;;;;;10.58;100.00;100571.78;2071024;28;20050;-71
2023/04/12 04:14:38;;;;;;;7.88;5.72;;;;;;;10.66;100.00;100580.69;2062530;28;20047;-71
2023/04/12 04:16:04;;;;;;;10.18;6.20;;;;;;;10.72;100.00;100575.47;2068643;28;20133;-71
2023/04/12 04:17:27;;;;;;;9.45;5.88;;;;;;;10.81;100.00;100575.59;2073993;28;20056;-71
2023/04/12 04:18:48;;;;;;;9.20;5.57;;;;;;;10.88;100.00;100581.81;2072929;28;20053;-71
2023/04/12 04:20:16;;;;;;;7.18;4.88;;;;;;;10.90;100.00;100569.50;2083934;28;20041;-71
2023/04/12 04:21:44;;;;;;;9.25;5.60;;;;;;;10.91;100.00;100579.19;2078373;28;20049;-71
2023/04/12 04:23:05;;;;;;;7.93;5.15;;;;;;;10.93;100.00;100569.56;2065195;28;20043;-72
2023/04/12 04:24:28;;;;;;;7.50;4.45;;;;;;;10.92;100.00;100576.59;2076505;28;20413;-71
2023/04/12 04:25:54;;;;;;;8.00;5.40;;;;;;;10.96;100.00;100580.16;2062812;28;20141;-71
2023/04/12 04:27:21;;;;;;;9.63;5.60;;;;;;;11.01;100.00;100584.63;2075693;28;20513;-71
2023/04/12 04:28:45;;;;;;;9.13;5.43;;;;;;;11.06;100.00;100582.03;2070980;28;20100;-71
2023/04/12 04:30:11;;;;;;;9.93;6.45;;;;;;;11.15;100.00;100582.13;2068132;28;20038;-71
2023/04/12 04:31:39;;;;;;;8.32;5.40;;;;;;;11.21;100.00;100586.59;2070410;28;20064;-71
2023/04/12 04:33:02;;;;;;;8.70;5.20;;;;;;;11.27;100.00;100592.81;2078396;28;20049;-71
2023/04/12 04:34:25;;;;;;;7.22;4.93;;;;;;;11.33;100.00;100590.22;2068520;28;20072;-71
2023/04/12 04:35:58;;;;;;;;;;;;;;;11.38;100.00;100595.56;2062442;28;20104;-71
2023/04/12 04:37:23;;;;;;;9.93;6.25;;;;;;;11.47;100.00;100596.53;2071118;28;19921;-71
2023/04/12 04:38:46;;;;;;;10.45;5.25;;;;;;;11.56;100.00;100593.06;2069398;28;20083;-71
2023/04/12 04:40:21;;;;;;;8.75;5.38;;;;;;;11.63;100.00;100591.38;2078685;28;20041;-71
2023/04/12 04:41:45;;;;;;;11.82;6.18;;;;;;;11.63;100.00;100592.25;2062555;28;20054;-71
2023/04/12 04:43:34;;;;;;;10.90;5.75;;;;;;;11.56;100.00;100593.06;2080087;28;20383;-71
2023/04/12 04:45:03;;;;;;;8.10;5.70;;;;;;;11.52;100.00;100588.63;2071340;28;20054;-71
2023/04/12 04:46:31;;;;;;;10.35;5.60;;;;;;;11.49;100.00;100591.25;2070459;28;20068;-71
2023/04/12 04:47:52;;;;;;;8.80;5.90;;;;;;;11.46;100.00;100583.31;2069487;28;20473;-71
2023/04/12 04:49:15;;;;;;;7.85;5.28;;;;;;;11.43;100.00;100589.44;2067565;28;20541;-71
2023/04/12 04:50:36;;;;;;;8.30;5.80;;;;;;;11.43;100.00;100589.44;2067635;28;20077;-71
2023/04/12 04:52:01;;;;;;;9.35;6.18;;;;;;;11.42;100.00;100585.00;2067072;28;20041;-71
2023/04/12 04:53:23;;;;;;;11.57;6.30;;;;;;;11.43;100.00;100585.91;2074016;28;20501;-71
2023/04/12 04:54:45;;;;;;;15.45;9.57;;;;;;;11.42;100.00;100586.78;2067896;28;20120;-71
2023/04/12 04:56:08;;;;;;;14.00;9.32;;;;;;;11.44;100.00;100585.03;2062219;28;20054;-71
2023/04/12 04:57:31;;;;;;;14.77;11.57;;;;;;;11.47;100.00;100593.00;2062843;28;20050;-71
2023/04/12 04:58:53;;;;;;;16.10;12.48;;;;;;;11.52;100.00;100591.28;2062025;28;20034;-71
2023/04/12 05:00:17;;;;;;;18.35;10.20;;;;;;;11.58;100.00;100600.16;2062444;28;20057;-71
2023/04/12 05:01:44;;;;;;;15.52;9.90;;;;;;;11.67;100.00;100594.06;2067959;28;20108;-71
2023/04/12 05:03:06;;;;;;;15.38;10.35;;;;;;;11.77;100.00;100595.03;2065524;28;20442;-71
2023/04/12 05:04:29;;;;;;;11.35;7.65;;;;;;;11.85;100.00;100599.53;2072702;28;20581;-71
2023/04/12 05:05:51;;;;;;;12.05;6.65;;;;;;;11.92;100.00;100598.69;2076994;28;20038;-71
2023/04/12 05:07:15;;;;;;;10.68;7.03;;;;;;;11.98;100.00;100601.38;2067126;28;20459;-71
2023/04/12 05:08:40;;;;;;;17.10;8.20;;;;;;;12.02;100.00;100606.69;2062597;28;20054;-71
2023/04/12 05:10:03;;;;;;;13.10;7.30;;;;;;;12.07;100.00;100607.63;2059487;28;20062;-70
2023/04/12 05:11:28;;;;;;;13.45;6.55;;;;;;;12.09;100.00;100601.44;2052068;28;20051;-70
2023/04/12 05:12:49;;;;;;;15.52;7.57;;;;;;;12.16;100.00;100605.03;2069565;28;20064;-71
2023/04/12 05:14:12;;;;;;;13.10;6.97;;;;;;;12.20;100.00;100609.47;2069066;28;20042;-70
2023/04/12 05:15:34;;;;;;;16.38;6.22;;;;;;;12.26;100.00;100596.28;2066425;28;20054;-71
2023/04/12 05:16:57;;;;;;;12.00;5.60;;;;;;;12.40;100.00;100605.19;2066934;28;20042;-71
2023/04/12 05:18:19;;;;;;;11.32;6.10;;;;;;;12.58;100.00;100607.94;2064685;28;20054;-71
2023/04/12 05:19:43;;;;;;;11.57;5.40;;;;;;;12.77;100.00;100601.84;2069216;28;20592;-70
2023/04/12 05:21:06;;;;;;;9.93;5.68;;;;;;;13.00;100.00;100603.66;2064429;28;20884;-70
2023/04/12 05:22:31;;;;;;;8.57;4.95;;;;;;;13.23;100.00;100598.47;2066540;28;20066;-71
2023/04/12 05:23:54;;;;;;;11.65;5.50;;;;;;;13.43;100.00;100594.97;2066653;28;20054;-71
2023/04/12 05:25:15;;;;;;;10.43;6.10;;;;;;;13.60;100.00;100591.44;2072850;28;20049;-71
2023/04/12 05:26:46;;;;;;;10.02;6.15;;;;;;;13.65;100.00;100584.38;2065768;28;20793;-71
2023/04/12 05:28:12;;;;;;;13.25;6.85;;;;;;;13.61;100.00;100591.44;2067717;28;20041;-71
2023/04/12 05:29:36;;;;;;;13.95;7.63;;;;;;;13.57;100.00;100587.03;2068944;28;20211;-71
2023/04/12 05:31:01;;;;;;;10.00;5.85;;;;;;;13.61;100.00;100598.50;2067742;28;20045;-71
2023/04/12 05:32:30;;;;;;;9.77;5.30;;;;;;;13.70;100.00;100582.63;2068989;28;20172;-71
2023/04/12 05:33:53;;;;;;;10.68;5.10;;;;;;;13.71;100.00;100592.34;2067491;28;20038;-71
2023/04/12 05:35:19;;;;;;;12.98;5.88;;;;;;;13.66;100.00;100591.44;2067668;28;20156;-71
2023/04/12 05:36:44;;;;;;;14.82;7.10;;;;;;;13.68;100.00;100597.63;2062226;28;20038;-71
2023/04/12 05:38:08;;;;;;;10.85;5.70;;;;;;;13.79;100.00;100590.53;2066945;28;20145;-71
2023/04/12 05:39:30;;;;;;;11.43;6.15;;;;;;;13.93;100.00;100602.94;2066847;28;20046;-71
2023/04/12 05:40:55;;;;;;;11.70;6.68;;;;;;;14.15;100.00;100589.63;2075316;28;20072;-70
2023/04/12 05:42:19;;;;;;;12.90;6.25;;;;;;;14.31;100.00;100594.00;2068716;28;20599;-71
2023/04/12 05:43:42;;;;;;;11.18;5.85;;;;;;;14.50;100.00;100597.56;2072784;28;20053;-70
2023/04/12 05:45:06;;;;;;;11.65;5.13;;;;;;;14.66;100.00;100593.94;2069636;28;20556;-71
2023/04/12 05:46:30;;;;;;;9.32;5.40;;;;;;;14.80;100.00;100584.16;2057437;28;20056;-71
2023/04/12 05:47:54;;;;;;;11.63;4.97;;;;;;;14.92;100.00;100584.09;2063136;28;20041;-72
2023/04/12 05:49:15;;;;;;;9.90;5.60;;;;;;;14.96;100.00;100585.88;2071586;28;20118;-72
2023/04/12 05:50:38;;;;;;;12.07;5.28;;;;;;;15.05;100.00;100591.09;2064573;28;20510;-71
2023/04/12 05:52:02;;;;;;;8.98;4.82;;;;;;;15.13;100.00;100588.41;2063494;28;20057;-72
2023/04/12 05:53:28;;;;;;;12.25;5.72;;;;;;;15.23;100.00;100589.25;2060939;28;20065;-72
2023/04/12 05:54:55;;;;;;;10.27;4.75;;;;;;;15.37;100.00;100587.38;2068678;28;20521;-71
2023/04/12 05:56:17;;;;;;;8.60;5.00;;;;;;;15.51;100.00;100590.81;2068782;28;20042;-72
2023/04/12 05:57:40;;;;;;;9.57;5.15;;;;;;;15.66;100.00;100582.75;2064703;28;20154;-72
2023/04/12 05:59:03;;;;;;;8.60;4.70;;;;;;;15.79;100.00;100594.19;2066845;28;20048;-72
2023/04/12 06:00:26;;;;;;;12.73;5.32;;;;;;;15.95;100.00;100583.38;2067231;28;20444;-71
2023/04/12 06:01:47;;;;;;;9.20;4.10;;;;;;;16.04;100.00;100593.06;2080057;28;20536;-71
2023/04/12 06:03:12;;;;;;;8.57;4.65;;;;;;;16.06;100.00;100577.06;2070016;28;20038;-71
2023/04/12 06:04:36;;;;;;;11.20;4.35;;;;;;;16.08;100.00;100584.13;2065069;28;20057;-71
2023/04/12 06:05:59;;;;;;;8.55;4.15;;;;;;;16.16;100.00;100587.63;2062033;28;20152;-72
2023/04/12 06:07:21;;;;;;;10.35;4.80;;;;;;;16.27;100.00;100587.53;2061150;28;20825;-71
2023/04/12 06:08:45;;;;;;;12.60;5.00;;;;;;;16.36;100.00;100595.41;2071602;28;20140;-72
2023/04/12 06:10:08;;;;;;;9.02;4.80;;;;;;;16.43;100.00;100594.44;2061340;28;20398;-71
2023/04/12 06:11:32;;;;;;;10.52;4.72;;;;;;;16.52;100.00;100596.13;2067971;28;20046;-71
2023/04/12 06:12:55;;;;;;;9.63;4.78;;;;;;;16.56;100.00;100585.41;2072149;28;20457;-71
2023/04/12 06:14:17;;;;;;;12.43;4.72;;;;;;;16.63;100.00;100583.56;2064546;28;20128;-72
2023/04/12 06:15:41;;;;;;;11.82;4.55;;;;;;;16.68;100.00;100595.06;2067659;28;20042;-71
2023/04/12 06:17:04;;;;;;;10.43;4.78;;;;;;;16.74;100.00;100597.66;2068309;28;20045;-72
2023/04/12 06:18:25;;;;;;;7.93;4.45;;;;;;;16.80;100.00;100588.72;2069521;28;20049;-72
2023/04/12 06:19:48;;;;;;;9.43;4.75;;;;;;;16.83;100.00;100592.22;2077480;28;20137;-71
2023/04/12 06:21:10;;;;;;;13.48;4.93;;;;;;;16.85;100.00;100594.88;2063566;28;20104;-72
2023/04/12 06:22:34;;;;;;;9.00;4.65;;;;;;;16.91;100.00;100594.78;2062617;28;20140;-71
2023/04/12 06:23:59;;;;;;;12.23;5.28;;;;;;;16.96;100.00;100582.25;2067322;28;20093;-72
2023/04/12 06:25:21;;;;;;;11.30;5.35;;;;;;;16.99;100.00;100593.78;2068793;28;20133;-71
2023/04/12 06:26:46;;;;;;;8.70;4.95;;;;;;;17.06;100.00;100591.94;2058907;28;20491;-71
2023/04/12 06:28:09;;;;;;;11.02;5.18;;;;;;;17.13;100.00;100586.47;2073464;28;20112;-72